sensor_id;sensor_type;location;lat;lon;timestamp;P1;durP1;ratioP1;P2;durP2;ratioP2
20792;SDS011;10556;-33.662;151.094;2022-12-18T00:01:13;0.80;;;0.33;;
20792;SDS011;10556;-33.662;151.094;2022-12-18T00:06:23;0.33;;;0.20;;
20792;SDS011;10556;-33.662;151.094;2022-12-18T00:11:28;0.80;;;0.30;;
20792;SDS011;10556;-33.662;151.094;2022-12-18T00:16:31;0.53;;;0.10;;
20792;SDS011;10556;-33.662;151.094;2022-12-18T00:21:36;0.33;;;0.10;;
20792;SDS011;10556;-33.662;151.094;2022-12-18T00:26:38;0.20;;;0.20;;
20792;SDS011;10556;-33.662;151.094;2022-12-18T00:31:41;0.37;;;0.13;;
20792;SDS011;10556;-33.662;151.094;2022-12-18T00:36:46;0.23;;;0.10;;
20792;SDS011;10556;-33.662;151.094;2022-12-18T00:41:49;0.73;;;0.20;;
20792;SDS011;10556;-33.662;151.094;2022-12-18T00:46:52;0.33;;;0.10;;
20792;SDS011;10556;-33.662;151.094;2022-12-18T00:51:56;0.10;;;0.10;;
20792;SDS011;10556;-33.662;151.094;2022-12-18T00:56:59;0.10;;;0.10;;
20792;SDS011;10556;-33.662;151.094;2022-12-18T01:02:01;0.50;;;0.10;;
20792;SDS011;10556;-33.662;151.094;2022-12-18T01:07:06;0.43;;;0.10;;
20792;SDS011;10556;-33.662;151.094;2022-12-18T01:12:08;0.10;;;0.10;;
20792;SDS011;10556;-33.662;151.094;2022-12-18T01:17:11;1.23;;;0.50;;
20792;SDS011;10556;-33.662;151.094;2022-12-18T01:22:15;1.20;;;0.20;;
20792;SDS011;10556;-33.662;151.094;2022-12-18T01:27:18;0.30;;;0.10;;
20792;SDS011;10556;-33.662;151.094;2022-12-18T01:32:20;0.20;;;0.10;;
20792;SDS011;10556;-33.662;151.094;2022-12-18T01:37:25;0.17;;;0.10;;
20792;SDS011;10556;-33.662;151.094;2022-12-18T01:42:28;2.07;;;0.30;;
20792;SDS011;10556;-33.662;151.094;2022-12-18T01:47:31;2.13;;;0.20;;
20792;SDS011;10556;-33.662;151.094;2022-12-18T01:52:43;0.47;;;0.17;;
20792;SDS011;10556;-33.662;151.094;2022-12-18T01:57:47;0.40;;;0.10;;
20792;SDS011;10556;-33.662;151.094;2022-12-18T02:02:53;2.93;;;0.20;;
20792;SDS011;10556;-33.662;151.094;2022-12-18T02:08:01;2.00;;;0.20;;
20792;SDS011;10556;-33.662;151.094;2022-12-18T02:13:11;0.67;;;0.20;;
20792;SDS011;10556;-33.662;151.094;2022-12-18T02:18:19;0.30;;;0.20;;
20792;SDS011;10556;-33.662;151.094;2022-12-18T02:23:31;1.33;;;0.30;;
20792;SDS011;10556;-33.662;151.094;2022-12-18T02:28:49;0.73;;;0.20;;
20792;SDS011;10556;-33.662;151.094;2022-12-18T02:33:55;3.10;;;0.40;;
20792;SDS011;10556;-33.662;151.094;2022-12-18T02:39:01;3.13;;;0.50;;
20792;SDS011;10556;-33.662;151.094;2022-12-18T02:44:08;1.33;;;0.57;;
20792;SDS011;10556;-33.662;151.094;2022-12-18T02:49:17;4.30;;;0.70;;
20792;SDS011;10556;-33.662;151.094;2022-12-18T02:54:33;5.17;;;0.70;;
20792;SDS011;10556;-33.662;151.094;2022-12-18T02:59:47;4.33;;;0.83;;
20792;SDS011;10556;-33.662;151.094;2022-12-18T03:04:58;5.03;;;0.70;;
20792;SDS011;10556;-33.662;151.094;2022-12-18T03:10:08;2.13;;;0.50;;
20792;SDS011;10556;-33.662;151.094;2022-12-18T03:15:17;1.33;;;0.40;;
20792;SDS011;10556;-33.662;151.094;2022-12-18T03:20:24;0.73;;;0.40;;
20792;SDS011;10556;-33.662;151.094;2022-12-18T03:25:30;3.00;;;0.50;;
20792;SDS011;10556;-33.662;151.094;2022-12-18T03:30:37;4.03;;;0.57;;
20792;SDS011;10556;-33.662;151.094;2022-12-18T03:35:41;2.10;;;0.50;;
20792;SDS011;10556;-33.662;151.094;2022-12-18T03:40:47;2.97;;;0.50;;
20792;SDS011;10556;-33.662;151.094;2022-12-18T03:46:01;1.93;;;0.60;;
20792;SDS011;10556;-33.662;151.094;2022-12-18T03:51:09;1.57;;;0.40;;
20792;SDS011;10556;-33.662;151.094;2022-12-18T03:56:16;2.03;;;0.33;;
20792;SDS011;10556;-33.662;151.094;2022-12-18T04:01:22;1.40;;;0.53;;
20792;SDS011;10556;-33.662;151.094;2022-12-18T04:06:28;2.90;;;0.57;;
20792;SDS011;10556;-33.662;151.094;2022-12-18T04:11:32;3.70;;;0.50;;
20792;SDS011;10556;-33.662;151.094;2022-12-18T04:16:37;1.43;;;0.50;;
20792;SDS011;10556;-33.662;151.094;2022-12-18T04:21:39;1.40;;;0.50;;
20792;SDS011;10556;-33.662;151.094;2022-12-18T04:26:42;1.40;;;0.40;;
20792;SDS011;10556;-33.662;151.094;2022-12-18T04:31:46;2.37;;;0.40;;
20792;SDS011;10556;-33.662;151.094;2022-12-18T04:36:49;2.23;;;0.20;;
20792;SDS011;10556;-33.662;151.094;2022-12-18T04:41:51;0.53;;;0.30;;
20792;SDS011;10556;-33.662;151.094;2022-12-18T04:46:56;3.97;;;0.80;;
20792;SDS011;10556;-33.662;151.094;2022-12-18T04:51:59;1.10;;;0.40;;
20792;SDS011;10556;-33.662;151.094;2022-12-18T04:57:01;1.23;;;0.40;;
20792;SDS011;10556;-33.662;151.094;2022-12-18T05:02:06;2.40;;;0.40;;
20792;SDS011;10556;-33.662;151.094;2022-12-18T05:07:08;5.60;;;1.17;;
20792;SDS011;10556;-33.662;151.094;2022-12-18T05:12:11;2.57;;;0.57;;
20792;SDS011;10556;-33.662;151.094;2022-12-18T05:17:15;2.63;;;0.37;;
20792;SDS011;10556;-33.662;151.094;2022-12-18T05:22:18;1.83;;;0.50;;
20792;SDS011;10556;-33.662;151.094;2022-12-18T05:27:21;2.47;;;0.47;;
20792;SDS011;10556;-33.662;151.094;2022-12-18T05:32:25;6.17;;;0.87;;
20792;SDS011;10556;-33.662;151.094;2022-12-18T05:37:28;2.00;;;0.60;;
20792;SDS011;10556;-33.662;151.094;2022-12-18T05:42:30;2.07;;;0.40;;
20792;SDS011;10556;-33.662;151.094;2022-12-18T05:47:35;2.20;;;0.67;;
20792;SDS011;10556;-33.662;151.094;2022-12-18T05:52:37;1.50;;;0.33;;
20792;SDS011;10556;-33.662;151.094;2022-12-18T05:57:40;0.43;;;0.13;;
20792;SDS011;10556;-33.662;151.094;2022-12-18T06:02:44;0.47;;;0.30;;
20792;SDS011;10556;-33.662;151.094;2022-12-18T06:07:48;0.60;;;0.20;;
20792;SDS011;10556;-33.662;151.094;2022-12-18T06:12:51;1.70;;;0.40;;
20792;SDS011;10556;-33.662;151.094;2022-12-18T06:17:55;1.93;;;0.20;;
20792;SDS011;10556;-33.662;151.094;2022-12-18T06:22:58;1.87;;;0.40;;
20792;SDS011;10556;-33.662;151.094;2022-12-18T06:28:00;1.33;;;0.30;;
20792;SDS011;10556;-33.662;151.094;2022-12-18T06:33:05;1.27;;;0.20;;
20792;SDS011;10556;-33.662;151.094;2022-12-18T06:38:08;3.40;;;0.50;;
20792;SDS011;10556;-33.662;151.094;2022-12-18T06:43:10;0.50;;;0.20;;
20792;SDS011;10556;-33.662;151.094;2022-12-18T06:48:15;2.17;;;0.33;;
20792;SDS011;10556;-33.662;151.094;2022-12-18T06:53:17;1.93;;;0.30;;
20792;SDS011;10556;-33.662;151.094;2022-12-18T06:58:20;1.87;;;0.20;;
20792;SDS011;10556;-33.662;151.094;2022-12-18T07:03:24;1.53;;;0.30;;
20792;SDS011;10556;-33.662;151.094;2022-12-18T07:08:27;1.30;;;0.50;;
20792;SDS011;10556;-33.662;151.094;2022-12-18T07:13:30;0.57;;;0.30;;
20792;SDS011;10556;-33.662;151.094;2022-12-18T07:18:35;1.00;;;0.23;;
20792;SDS011;10556;-33.662;151.094;2022-12-18T07:23:37;2.53;;;0.30;;
20792;SDS011;10556;-33.662;151.094;2022-12-18T07:28:40;0.57;;;0.20;;
20792;SDS011;10556;-33.662;151.094;2022-12-18T07:33:45;3.50;;;0.70;;
20792;SDS011;10556;-33.662;151.094;2022-12-18T07:38:48;0.57;;;0.30;;
20792;SDS011;10556;-33.662;151.094;2022-12-18T07:43:51;2.67;;;0.70;;
20792;SDS011;10556;-33.662;151.094;2022-12-18T07:48:55;3.03;;;0.30;;
20792;SDS011;10556;-33.662;151.094;2022-12-18T07:53:58;0.73;;;0.30;;
20792;SDS011;10556;-33.662;151.094;2022-12-18T07:59:01;0.87;;;0.30;;
20792;SDS011;10556;-33.662;151.094;2022-12-18T08:04:05;2.90;;;0.37;;
20792;SDS011;10556;-33.662;151.094;2022-12-18T08:09:09;3.57;;;0.60;;
20792;SDS011;10556;-33.662;151.094;2022-12-18T08:14:12;2.00;;;0.47;;
20792;SDS011;10556;-33.662;151.094;2022-12-18T08:19:16;1.30;;;0.20;;
20792;SDS011;10556;-33.662;151.094;2022-12-18T08:24:18;2.27;;;0.40;;
20792;SDS011;10556;-33.662;151.094;2022-12-18T08:29:21;3.27;;;0.50;;
20792;SDS011;10556;-33.662;151.094;2022-12-18T08:34:26;3.80;;;0.60;;
20792;SDS011;10556;-33.662;151.094;2022-12-18T08:39:28;2.93;;;0.43;;
20792;SDS011;10556;-33.662;151.094;2022-12-18T08:44:31;1.87;;;0.60;;
20792;SDS011;10556;-33.662;151.094;2022-12-18T08:49:36;1.53;;;0.50;;
20792;SDS011;10556;-33.662;151.094;2022-12-18T08:54:38;1.80;;;0.40;;
20792;SDS011;10556;-33.662;151.094;2022-12-18T08:59:41;2.87;;;0.30;;
20792;SDS011;10556;-33.662;151.094;2022-12-18T09:04:45;2.83;;;0.20;;
20792;SDS011;10556;-33.662;151.094;2022-12-18T09:09:48;0.93;;;0.27;;
20792;SDS011;10556;-33.662;151.094;2022-12-18T09:14:51;1.47;;;0.33;;
20792;SDS011;10556;-33.662;151.094;2022-12-18T09:19:55;2.17;;;0.50;;
20792;SDS011;10556;-33.662;151.094;2022-12-18T09:24:58;1.80;;;0.43;;
20792;SDS011;10556;-33.662;151.094;2022-12-18T09:30:01;1.23;;;0.50;;
20792;SDS011;10556;-33.662;151.094;2022-12-18T09:35:06;2.13;;;0.77;;
20792;SDS011;10556;-33.662;151.094;2022-12-18T09:40:12;3.73;;;0.40;;
20792;SDS011;10556;-33.662;151.094;2022-12-18T09:45:15;3.70;;;0.97;;
20792;SDS011;10556;-33.662;151.094;2022-12-18T09:50:23;0.53;;;0.20;;
20792;SDS011;10556;-33.662;151.094;2022-12-18T09:55:31;1.90;;;0.50;;
20792;SDS011;10556;-33.662;151.094;2022-12-18T10:00:37;2.33;;;0.30;;
20792;SDS011;10556;-33.662;151.094;2022-12-18T10:05:43;0.53;;;0.10;;
20792;SDS011;10556;-33.662;151.094;2022-12-18T10:10:55;1.80;;;0.40;;
20792;SDS011;10556;-33.662;151.094;2022-12-18T10:16:05;1.27;;;0.40;;
20792;SDS011;10556;-33.662;151.094;2022-12-18T10:21:15;7.00;;;0.70;;
20792;SDS011;10556;-33.662;151.094;2022-12-18T10:26:22;2.47;;;0.40;;
20792;SDS011;10556;-33.662;151.094;2022-12-18T10:31:25;3.03;;;0.40;;
20792;SDS011;10556;-33.662;151.094;2022-12-18T10:36:30;0.43;;;0.20;;
20792;SDS011;10556;-33.662;151.094;2022-12-18T10:41:32;1.90;;;0.50;;
20792;SDS011;10556;-33.662;151.094;2022-12-18T10:46:35;2.67;;;0.40;;
20792;SDS011;10556;-33.662;151.094;2022-12-18T10:51:39;2.03;;;0.43;;
20792;SDS011;10556;-33.662;151.094;2022-12-18T10:56:42;2.30;;;0.30;;
20792;SDS011;10556;-33.662;151.094;2022-12-18T11:01:47;1.17;;;0.47;;
20792;SDS011;10556;-33.662;151.094;2022-12-18T11:06:57;1.63;;;0.40;;
20792;SDS011;10556;-33.662;151.094;2022-12-18T11:12:01;0.87;;;0.30;;
20792;SDS011;10556;-33.662;151.094;2022-12-18T11:17:05;2.83;;;0.57;;
20792;SDS011;10556;-33.662;151.094;2022-12-18T11:22:21;3.07;;;0.50;;
20792;SDS011;10556;-33.662;151.094;2022-12-18T11:27:26;2.80;;;0.70;;
20792;SDS011;10556;-33.662;151.094;2022-12-18T11:32:33;1.37;;;0.60;;
20792;SDS011;10556;-33.662;151.094;2022-12-18T11:37:40;1.27;;;0.30;;
20792;SDS011;10556;-33.662;151.094;2022-12-18T11:42:48;1.83;;;0.40;;
20792;SDS011;10556;-33.662;151.094;2022-12-18T11:47:57;1.07;;;0.40;;
20792;SDS011;10556;-33.662;151.094;2022-12-18T11:53:08;2.37;;;0.37;;
20792;SDS011;10556;-33.662;151.094;2022-12-18T11:58:14;2.20;;;0.60;;
20792;SDS011;10556;-33.662;151.094;2022-12-18T12:03:39;3.63;;;0.70;;
20792;SDS011;10556;-33.662;151.094;2022-12-18T12:08:56;4.03;;;0.60;;
20792;SDS011;10556;-33.662;151.094;2022-12-18T12:14:13;1.93;;;0.50;;
20792;SDS011;10556;-33.662;151.094;2022-12-18T12:19:29;1.87;;;0.40;;
20792;SDS011;10556;-33.662;151.094;2022-12-18T12:24:43;3.30;;;0.50;;
20792;SDS011;10556;-33.662;151.094;2022-12-18T12:29:59;0.70;;;0.20;;
20792;SDS011;10556;-33.662;151.094;2022-12-18T12:35:08;3.90;;;0.50;;
20792;SDS011;10556;-33.662;151.094;2022-12-18T12:40:23;2.43;;;0.40;;
20792;SDS011;10556;-33.662;151.094;2022-12-18T12:45:30;2.97;;;0.50;;
20792;SDS011;10556;-33.662;151.094;2022-12-18T12:50:37;1.03;;;0.30;;
20792;SDS011;10556;-33.662;151.094;2022-12-18T12:55:43;1.93;;;0.40;;
20792;SDS011;10556;-33.662;151.094;2022-12-18T13:00:46;1.67;;;0.40;;
20792;SDS011;10556;-33.662;151.094;2022-12-18T13:06:02;1.77;;;0.70;;
20792;SDS011;10556;-33.662;151.094;2022-12-18T13:11:17;3.23;;;0.50;;
20792;SDS011;10556;-33.662;151.094;2022-12-18T13:16:36;3.50;;;0.60;;
20792;SDS011;10556;-33.662;151.094;2022-12-18T13:21:38;3.33;;;0.73;;
20792;SDS011;10556;-33.662;151.094;2022-12-18T13:26:43;3.70;;;0.63;;
20792;SDS011;10556;-33.662;151.094;2022-12-18T13:31:58;2.83;;;0.67;;
20792;SDS011;10556;-33.662;151.094;2022-12-18T13:42:41;3.57;;;0.80;;
20792;SDS011;10556;-33.662;151.094;2022-12-18T13:47:43;1.03;;;0.30;;
20792;SDS011;10556;-33.662;151.094;2022-12-18T13:52:46;3.83;;;0.60;;
20792;SDS011;10556;-33.662;151.094;2022-12-18T13:57:51;3.33;;;0.50;;
20792;SDS011;10556;-33.662;151.094;2022-12-18T14:03:16;1.53;;;0.40;;
20792;SDS011;10556;-33.662;151.094;2022-12-18T14:08:20;2.23;;;0.90;;
20792;SDS011;10556;-33.662;151.094;2022-12-18T14:13:26;3.93;;;0.70;;
20792;SDS011;10556;-33.662;151.094;2022-12-18T14:18:33;4.10;;;0.60;;
20792;SDS011;10556;-33.662;151.094;2022-12-18T14:23:40;2.17;;;0.50;;
20792;SDS011;10556;-33.662;151.094;2022-12-18T14:28:45;2.03;;;0.40;;
20792;SDS011;10556;-33.662;151.094;2022-12-18T14:33:48;2.97;;;0.70;;
20792;SDS011;10556;-33.662;151.094;2022-12-18T14:38:52;3.53;;;0.70;;
20792;SDS011;10556;-33.662;151.094;2022-12-18T14:44:04;5.60;;;0.90;;
20792;SDS011;10556;-33.662;151.094;2022-12-18T14:49:18;2.93;;;0.60;;
20792;SDS011;10556;-33.662;151.094;2022-12-18T14:54:24;7.43;;;0.97;;
20792;SDS011;10556;-33.662;151.094;2022-12-18T14:59:30;3.20;;;0.77;;
20792;SDS011;10556;-33.662;151.094;2022-12-18T15:04:34;4.87;;;0.80;;
20792;SDS011;10556;-33.662;151.094;2022-12-18T15:09:39;7.83;;;0.80;;
20792;SDS011;10556;-33.662;151.094;2022-12-18T15:14:44;3.70;;;0.80;;
20792;SDS011;10556;-33.662;151.094;2022-12-18T15:19:47;6.33;;;0.90;;
20792;SDS011;10556;-33.662;151.094;2022-12-18T15:24:52;6.93;;;0.90;;
20792;SDS011;10556;-33.662;151.094;2022-12-18T15:35:23;2.63;;;0.50;;
20792;SDS011;10556;-33.662;151.094;2022-12-18T15:40:25;4.27;;;1.00;;
20792;SDS011;10556;-33.662;151.094;2022-12-18T15:45:30;5.40;;;0.80;;
20792;SDS011;10556;-33.662;151.094;2022-12-18T15:50:33;6.00;;;1.27;;
20792;SDS011;10556;-33.662;151.094;2022-12-18T15:55:37;2.90;;;0.97;;
20792;SDS011;10556;-33.662;151.094;2022-12-18T16:00:42;5.67;;;1.20;;
20792;SDS011;10556;-33.662;151.094;2022-12-18T16:05:44;3.63;;;0.93;;
20792;SDS011;10556;-33.662;151.094;2022-12-18T16:10:47;5.70;;;1.00;;
20792;SDS011;10556;-33.662;151.094;2022-12-18T16:15:51;8.70;;;1.20;;
20792;SDS011;10556;-33.662;151.094;2022-12-18T16:20:54;8.67;;;1.50;;
20792;SDS011;10556;-33.662;151.094;2022-12-18T16:25:57;4.77;;;1.13;;
20792;SDS011;10556;-33.662;151.094;2022-12-18T16:31:01;6.83;;;1.00;;
20792;SDS011;10556;-33.662;151.094;2022-12-18T16:36:04;4.83;;;1.00;;
20792;SDS011;10556;-33.662;151.094;2022-12-18T16:41:11;6.03;;;1.20;;
20792;SDS011;10556;-33.662;151.094;2022-12-18T16:46:20;6.43;;;0.80;;
20792;SDS011;10556;-33.662;151.094;2022-12-18T16:51:33;5.30;;;1.43;;
20792;SDS011;10556;-33.662;151.094;2022-12-18T16:56:36;5.57;;;1.17;;
20792;SDS011;10556;-33.662;151.094;2022-12-18T17:01:41;3.47;;;0.90;;
20792;SDS011;10556;-33.662;151.094;2022-12-18T17:06:44;10.27;;;1.37;;
20792;SDS011;10556;-33.662;151.094;2022-12-18T17:11:47;5.00;;;0.90;;
20792;SDS011;10556;-33.662;151.094;2022-12-18T17:16:51;5.63;;;1.10;;
20792;SDS011;10556;-33.662;151.094;2022-12-18T17:21:54;8.97;;;1.20;;
20792;SDS011;10556;-33.662;151.094;2022-12-18T17:26:57;7.47;;;0.87;;
20792;SDS011;10556;-33.662;151.094;2022-12-18T17:32:01;5.80;;;1.03;;
20792;SDS011;10556;-33.662;151.094;2022-12-18T17:37:04;5.10;;;1.00;;
20792;SDS011;10556;-33.662;151.094;2022-12-18T17:42:07;6.60;;;1.77;;
20792;SDS011;10556;-33.662;151.094;2022-12-18T17:47:11;7.97;;;1.70;;
20792;SDS011;10556;-33.662;151.094;2022-12-18T17:52:14;3.40;;;1.23;;
20792;SDS011;10556;-33.662;151.094;2022-12-18T17:57:16;6.90;;;1.20;;
20792;SDS011;10556;-33.662;151.094;2022-12-18T18:02:21;5.20;;;1.20;;
20792;SDS011;10556;-33.662;151.094;2022-12-18T18:07:23;7.67;;;1.33;;
20792;SDS011;10556;-33.662;151.094;2022-12-18T18:12:26;7.53;;;0.93;;
20792;SDS011;10556;-33.662;151.094;2022-12-18T18:17:30;5.33;;;1.10;;
20792;SDS011;10556;-33.662;151.094;2022-12-18T18:22:33;5.03;;;1.00;;
20792;SDS011;10556;-33.662;151.094;2022-12-18T18:27:35;9.03;;;1.27;;
20792;SDS011;10556;-33.662;151.094;2022-12-18T18:32:40;4.67;;;0.87;;
20792;SDS011;10556;-33.662;151.094;2022-12-18T18:37:42;4.13;;;1.00;;
20792;SDS011;10556;-33.662;151.094;2022-12-18T18:42:47;4.93;;;1.20;;
20792;SDS011;10556;-33.662;151.094;2022-12-18T18:47:51;4.67;;;0.90;;
20792;SDS011;10556;-33.662;151.094;2022-12-18T18:52:54;6.57;;;1.30;;
20792;SDS011;10556;-33.662;151.094;2022-12-18T18:57:57;5.37;;;1.30;;
20792;SDS011;10556;-33.662;151.094;2022-12-18T19:03:01;7.37;;;1.23;;
20792;SDS011;10556;-33.662;151.094;2022-12-18T19:08:04;5.30;;;1.37;;
20792;SDS011;10556;-33.662;151.094;2022-12-18T19:13:13;7.67;;;1.20;;
20792;SDS011;10556;-33.662;151.094;2022-12-18T19:18:18;2.57;;;0.73;;
20792;SDS011;10556;-33.662;151.094;2022-12-18T19:23:20;6.33;;;1.10;;
20792;SDS011;10556;-33.662;151.094;2022-12-18T19:28:23;7.53;;;1.13;;
20792;SDS011;10556;-33.662;151.094;2022-12-18T19:33:28;6.30;;;1.10;;
20792;SDS011;10556;-33.662;151.094;2022-12-18T19:38:32;6.40;;;1.33;;
20792;SDS011;10556;-33.662;151.094;2022-12-18T19:43:35;4.43;;;0.97;;
20792;SDS011;10556;-33.662;151.094;2022-12-18T19:48:41;4.60;;;1.07;;
20792;SDS011;10556;-33.662;151.094;2022-12-18T19:53:44;4.07;;;1.13;;
20792;SDS011;10556;-33.662;151.094;2022-12-18T19:58:47;4.83;;;1.20;;
20792;SDS011;10556;-33.662;151.094;2022-12-18T20:03:51;5.63;;;1.17;;
20792;SDS011;10556;-33.662;151.094;2022-12-18T20:08:55;9.23;;;0.93;;
20792;SDS011;10556;-33.662;151.094;2022-12-18T20:13:59;8.43;;;1.03;;
20792;SDS011;10556;-33.662;151.094;2022-12-18T20:19:03;3.30;;;0.80;;
20792;SDS011;10556;-33.662;151.094;2022-12-18T20:24:06;5.83;;;1.10;;
20792;SDS011;10556;-33.662;151.094;2022-12-18T20:29:10;3.93;;;1.17;;
20792;SDS011;10556;-33.662;151.094;2022-12-18T20:34:14;6.87;;;1.23;;
20792;SDS011;10556;-33.662;151.094;2022-12-18T20:39:17;6.43;;;0.90;;
20792;SDS011;10556;-33.662;151.094;2022-12-18T20:44:19;3.10;;;0.90;;
20792;SDS011;10556;-33.662;151.094;2022-12-18T20:49:24;6.70;;;1.23;;
20792;SDS011;10556;-33.662;151.094;2022-12-18T20:54:27;6.40;;;1.20;;
20792;SDS011;10556;-33.662;151.094;2022-12-18T20:59:30;3.80;;;0.93;;
20792;SDS011;10556;-33.662;151.094;2022-12-18T21:04:34;4.67;;;0.90;;
20792;SDS011;10556;-33.662;151.094;2022-12-18T21:09:37;5.13;;;0.90;;
20792;SDS011;10556;-33.662;151.094;2022-12-18T21:14:39;8.53;;;1.20;;
20792;SDS011;10556;-33.662;151.094;2022-12-18T21:19:44;3.57;;;1.17;;
20792;SDS011;10556;-33.662;151.094;2022-12-18T21:24:47;5.03;;;1.20;;
20792;SDS011;10556;-33.662;151.094;2022-12-18T21:29:49;5.20;;;1.07;;
20792;SDS011;10556;-33.662;151.094;2022-12-18T21:34:54;4.60;;;0.97;;
20792;SDS011;10556;-33.662;151.094;2022-12-18T21:39:56;5.23;;;0.87;;
20792;SDS011;10556;-33.662;151.094;2022-12-18T21:44:59;2.63;;;0.90;;
20792;SDS011;10556;-33.662;151.094;2022-12-18T21:50:03;4.37;;;1.07;;
20792;SDS011;10556;-33.662;151.094;2022-12-18T21:55:07;5.83;;;1.50;;
20792;SDS011;10556;-33.662;151.094;2022-12-18T22:00:10;4.17;;;1.43;;
20792;SDS011;10556;-33.662;151.094;2022-12-18T22:05:15;6.30;;;1.50;;
20792;SDS011;10556;-33.662;151.094;2022-12-18T22:10:18;6.37;;;1.67;;
20792;SDS011;10556;-33.662;151.094;2022-12-18T22:15:20;3.93;;;0.83;;
20792;SDS011;10556;-33.662;151.094;2022-12-18T22:20:24;7.40;;;1.63;;
20792;SDS011;10556;-33.662;151.094;2022-12-18T22:25:27;5.83;;;1.20;;
20792;SDS011;10556;-33.662;151.094;2022-12-18T22:30:30;6.60;;;1.00;;
20792;SDS011;10556;-33.662;151.094;2022-12-18T22:35:34;8.40;;;1.10;;
20792;SDS011;10556;-33.662;151.094;2022-12-18T22:40:37;6.00;;;1.50;;
20792;SDS011;10556;-33.662;151.094;2022-12-18T22:45:39;7.10;;;1.67;;
20792;SDS011;10556;-33.662;151.094;2022-12-18T22:50:44;4.70;;;1.00;;
20792;SDS011;10556;-33.662;151.094;2022-12-18T22:55:46;7.03;;;1.67;;
20792;SDS011;10556;-33.662;151.094;2022-12-18T23:00:49;6.20;;;1.60;;
20792;SDS011;10556;-33.662;151.094;2022-12-18T23:06:00;8.00;;;1.40;;
20792;SDS011;10556;-33.662;151.094;2022-12-18T23:11:04;6.53;;;1.53;;
20792;SDS011;10556;-33.662;151.094;2022-12-18T23:16:07;7.60;;;1.40;;
20792;SDS011;10556;-33.662;151.094;2022-12-18T23:21:15;6.73;;;1.33;;
20792;SDS011;10556;-33.662;151.094;2022-12-18T23:26:19;11.53;;;2.30;;
20792;SDS011;10556;-33.662;151.094;2022-12-18T23:31:22;3.50;;;1.23;;
20792;SDS011;10556;-33.662;151.094;2022-12-18T23:36:28;4.47;;;1.33;;
20792;SDS011;10556;-33.662;151.094;2022-12-18T23:41:31;5.47;;;1.20;;
20792;SDS011;10556;-33.662;151.094;2022-12-18T23:46:34;3.43;;;0.90;;
20792;SDS011;10556;-33.662;151.094;2022-12-18T23:51:38;6.33;;;1.60;;
20792;SDS011;10556;-33.662;151.094;2022-12-18T23:56:41;3.67;;;1.00;;
